createdAt,value
2018-03-06T00:00:39.158Z,29.23
2018-03-06T00:03:08.407Z,30.73
2018-03-06T00:05:37.734Z,22.43
2018-03-06T00:08:06.964Z,29.30
2018-03-06T00:10:36.256Z,25.80
2018-03-06T00:13:05.555Z,26.77
2018-03-06T00:15:34.771Z,31.83
2018-03-06T00:18:04.034Z,29.73
2018-03-06T00:20:34.068Z,21.73
2018-03-06T00:23:03.353Z,24.60
2018-03-06T00:25:32.605Z,24.90
2018-03-06T00:28:01.869Z,27.00
2018-03-06T00:30:31.903Z,37.00
2018-03-06T00:33:01.151Z,31.60
2018-03-06T00:35:30.430Z,17.40
2018-03-06T00:37:59.694Z,35.40
2018-03-06T00:40:29.693Z,24.60
2018-03-06T00:42:58.977Z,27.13
2018-03-06T00:45:28.256Z,20.73
2018-03-06T00:47:57.500Z,22.17
2018-03-06T00:50:27.584Z,33.73
2018-03-06T00:52:57.182Z,35.07
2018-03-06T00:55:26.474Z,23.77
2018-03-06T00:57:55.756Z,23.83
2018-03-06T01:00:25.202Z,22.40
2018-03-06T01:02:54.475Z,27.30
2018-03-06T01:05:23.754Z,30.23
2018-03-06T01:07:53.123Z,27.70
2018-03-06T01:10:22.395Z,30.50
2018-03-06T01:12:51.687Z,33.67
2018-03-06T01:15:20.962Z,35.43
2018-03-06T01:17:50.229Z,30.47
2018-03-06T01:20:19.470Z,28.07
2018-03-06T01:22:48.760Z,31.70
2018-03-06T01:25:18.807Z,34.53
2018-03-06T01:27:48.084Z,34.83
2018-03-06T01:30:17.328Z,30.00
2018-03-06T01:32:46.628Z,40.27
2018-03-06T01:35:15.893Z,35.33
2018-03-06T01:37:45.166Z,27.40
2018-03-06T01:40:15.206Z,48.33
2018-03-06T01:42:44.508Z,36.60
2018-03-06T01:45:13.905Z,38.93
2018-03-06T01:47:43.376Z,31.80
2018-03-06T01:50:13.381Z,31.87
2018-03-06T01:52:42.652Z,28.30
2018-03-06T01:55:12.042Z,38.53
2018-03-06T01:57:41.304Z,50.53
2018-03-06T02:00:10.577Z,32.33
2018-03-06T02:02:39.998Z,36.17
2018-03-06T02:05:09.262Z,34.90
2018-03-06T02:07:38.514Z,37.40
2018-03-06T02:10:07.764Z,37.60
2018-03-06T02:12:37.045Z,49.03
2018-03-06T02:15:06.317Z,41.00
2018-03-06T02:17:35.574Z,35.90
2018-03-06T02:20:04.861Z,41.13
2018-03-06T02:22:34.160Z,43.43
2018-03-06T02:25:03.391Z,39.53
2018-03-06T02:27:32.786Z,39.47
2018-03-06T02:30:02.203Z,43.23
2018-03-06T02:32:31.504Z,39.47
2018-03-06T02:35:00.765Z,34.50
2018-03-06T02:37:30.018Z,35.47
2018-03-06T02:39:59.297Z,42.57
2018-03-06T02:42:28.661Z,50.23
2018-03-06T02:44:57.887Z,34.10
2018-03-06T02:47:27.162Z,44.33
2018-03-06T02:49:56.463Z,39.30
2018-03-06T02:52:25.722Z,37.50
2018-03-06T02:54:55.061Z,49.23
2018-03-06T02:57:24.302Z,44.67
2018-03-06T02:59:53.713Z,47.57
2018-03-06T03:02:22.969Z,50.33
2018-03-06T03:04:52.260Z,43.40
2018-03-06T03:07:21.518Z,50.07
2018-03-06T03:09:50.784Z,46.53
2018-03-06T03:12:20.144Z,44.47
2018-03-06T03:14:49.406Z,48.63
2018-03-06T03:17:18.660Z,44.57
2018-03-06T03:19:49.560Z,63.17
2018-03-06T03:22:18.857Z,43.97
2018-03-06T03:24:48.156Z,49.50
2018-03-06T03:27:17.401Z,51.17
2018-03-06T03:29:46.693Z,47.30
2018-03-06T03:32:16.974Z,44.03
2018-03-06T03:34:46.381Z,50.00
2018-03-06T03:37:15.642Z,51.20
2018-03-06T03:39:44.917Z,42.93
2018-03-06T03:42:14.335Z,45.80
2018-03-06T03:44:44.354Z,56.00
2018-03-06T03:47:13.623Z,58.03
2018-03-06T03:49:42.868Z,62.37
2018-03-06T03:52:13.692Z,58.07
2018-03-06T03:54:42.978Z,60.77
2018-03-06T03:57:13.722Z,57.50
2018-03-06T03:59:43.153Z,58.37
2018-03-06T04:02:12.410Z,48.60
2018-03-06T04:04:41.706Z,54.83
2018-03-06T04:07:10.975Z,52.03
2018-03-06T04:09:40.220Z,62.43
2018-03-06T04:12:09.516Z,54.03
2018-03-06T04:14:38.769Z,54.57
2018-03-06T04:17:08.071Z,60.87
2018-03-06T04:19:37.465Z,80.73
2018-03-06T04:22:07.464Z,59.17
2018-03-06T04:24:37.513Z,48.93
2018-03-06T04:27:06.772Z,49.97
2018-03-06T04:29:36.052Z,58.67
2018-03-06T04:32:05.294Z,57.77
2018-03-06T04:34:35.357Z,62.37
2018-03-06T04:37:04.593Z,51.90
2018-03-06T04:39:33.858Z,57.63
2018-03-06T04:42:03.126Z,59.53
2018-03-06T04:44:32.433Z,52.93
2018-03-06T04:47:01.695Z,59.33
2018-03-06T04:49:30.965Z,42.67
2018-03-06T04:52:00.292Z,62.27
2018-03-06T04:54:29.586Z,60.17
2018-03-06T04:56:58.919Z,55.93
2018-03-06T04:59:29.027Z,43.10
2018-03-06T05:01:58.450Z,57.10
2018-03-06T05:04:27.700Z,70.07
2018-03-06T05:06:57.146Z,46.57
2018-03-06T05:09:27.175Z,55.90
2018-03-06T05:11:56.475Z,75.47
2018-03-06T05:14:25.730Z,51.17
2018-03-06T05:16:55.131Z,51.70
2018-03-06T05:19:24.444Z,64.40
2018-03-06T05:21:53.702Z,64.17
2018-03-06T05:24:22.950Z,60.30
2018-03-06T05:26:52.260Z,63.17
2018-03-06T05:29:21.467Z,62.73
2018-03-06T05:31:51.558Z,56.60
2018-03-06T05:34:20.985Z,60.40
2018-03-06T05:36:50.286Z,63.63
2018-03-06T05:39:19.507Z,62.50
2018-03-06T05:41:48.784Z,62.57
2018-03-06T05:44:18.835Z,76.03
2018-03-06T05:46:48.107Z,60.27
2018-03-06T05:49:17.398Z,52.20
2018-03-06T05:51:46.687Z,82.27
2018-03-06T05:54:15.957Z,58.03
2018-03-06T05:56:45.240Z,49.40
2018-03-06T05:59:15.549Z,72.23
2018-03-06T06:01:45.585Z,55.97
2018-03-06T06:04:14.845Z,62.90
2018-03-06T06:06:44.126Z,59.00
2018-03-06T06:09:14.142Z,60.33
2018-03-06T06:11:43.412Z,53.63
2018-03-06T06:14:12.721Z,43.43
2018-03-06T06:16:42.015Z,48.43
2018-03-06T06:19:11.320Z,56.83
2018-03-06T06:21:40.605Z,46.10
2018-03-06T06:24:09.873Z,86.07
2018-03-06T06:26:39.142Z,66.10
2018-03-06T06:29:08.415Z,63.27
2018-03-06T06:31:37.661Z,80.37
2018-03-06T06:34:07.018Z,58.57
2018-03-06T06:36:41.377Z,64.17
2018-03-06T06:39:10.728Z,73.10
2018-03-06T06:41:40.733Z,63.60
2018-03-06T06:44:10.813Z,57.33
2018-03-06T06:46:40.064Z,66.10
2018-03-06T06:49:10.786Z,64.30
2018-03-06T06:51:40.827Z,62.80
2018-03-06T06:54:10.094Z,54.00
2018-03-06T06:56:39.396Z,61.27
2018-03-06T06:59:08.695Z,57.73
2018-03-06T07:01:37.919Z,54.83
2018-03-06T07:04:07.196Z,56.53
2018-03-06T07:06:36.490Z,54.17
2018-03-06T07:09:05.757Z,56.97
2018-03-06T07:11:35.034Z,59.93
2018-03-06T07:14:04.314Z,59.93
2018-03-06T07:16:33.561Z,67.40
2018-03-06T07:19:02.840Z,57.87
2018-03-06T07:21:32.197Z,64.87
2018-03-06T07:24:01.462Z,57.63
2018-03-06T07:26:30.811Z,62.17
2018-03-06T07:29:00.809Z,63.03
2018-03-06T07:31:30.057Z,70.93
2018-03-06T07:33:59.349Z,61.17
2018-03-06T07:36:29.378Z,65.33
2018-03-06T07:38:58.767Z,66.10
2018-03-06T07:41:28.791Z,63.53
2018-03-06T07:43:58.081Z,63.13
2018-03-06T07:46:27.364Z,58.47
2018-03-06T07:48:56.642Z,74.17
2018-03-06T07:51:25.898Z,66.40
2018-03-06T07:53:55.179Z,62.33
2018-03-06T07:56:25.261Z,64.97
2018-03-06T07:58:54.524Z,66.47
2018-03-06T08:01:23.962Z,64.60
2018-03-06T08:03:53.248Z,64.50
2018-03-06T08:06:23.278Z,74.23
2018-03-06T08:08:52.545Z,62.80
2018-03-06T08:11:21.986Z,88.07
2018-03-06T08:13:51.271Z,84.20
2018-03-06T08:16:20.538Z,115.83
2018-03-06T08:18:50.592Z,123.63
2018-03-06T08:21:19.859Z,99.23
2018-03-06T08:23:49.194Z,96.10
2018-03-06T08:26:18.527Z,90.90
2018-03-06T08:28:47.857Z,88.03
2018-03-06T08:31:17.150Z,98.13
2018-03-06T08:33:46.418Z,89.97
2018-03-06T08:36:15.764Z,89.50
2018-03-06T08:38:45.055Z,97.97
2018-03-06T08:41:14.362Z,97.53
2018-03-06T08:43:43.888Z,84.83
2018-03-06T08:46:14.052Z,84.20
2018-03-06T08:48:43.362Z,102.67
2018-03-06T08:51:13.291Z,84.30
2018-03-06T08:53:42.550Z,72.13
2018-03-06T08:56:11.939Z,82.40
2018-03-06T08:58:41.218Z,73.73
2018-03-06T09:01:10.783Z,88.03
2018-03-06T09:03:40.361Z,85.77
2018-03-06T09:06:10.375Z,91.67
2018-03-06T09:08:39.663Z,92.60
2018-03-06T09:13:44.413Z,80.37
2018-03-06T09:16:13.703Z,79.07
2018-03-06T09:18:42.989Z,103.00
2018-03-06T09:21:12.303Z,77.47
2018-03-06T09:23:41.561Z,86.63
2018-03-06T09:26:10.870Z,84.97
2018-03-06T09:28:40.134Z,76.83
2018-03-06T09:31:10.170Z,81.13
2018-03-06T09:33:39.436Z,78.50
2018-03-06T09:36:08.711Z,75.57
2018-03-06T09:38:39.530Z,95.70
2018-03-06T09:41:08.822Z,82.43
2018-03-06T09:43:38.097Z,85.47
2018-03-06T09:46:08.189Z,94.43
2018-03-06T09:48:37.554Z,102.63
2018-03-06T09:51:06.933Z,104.50
2018-03-06T09:53:36.248Z,101.43
2018-03-06T09:56:05.533Z,100.97
2018-03-06T09:58:34.894Z,96.23
2018-03-06T10:01:04.194Z,102.63
2018-03-06T10:03:34.977Z,107.60
2018-03-06T10:06:04.372Z,109.50
2018-03-06T10:08:33.779Z,109.50
2018-03-06T10:11:03.065Z,110.87
2018-03-06T10:13:32.346Z,102.97
2018-03-06T10:16:01.630Z,105.00
2018-03-06T10:18:30.900Z,132.53
2018-03-06T10:21:00.169Z,120.73
2018-03-06T10:23:30.221Z,113.30
2018-03-06T10:25:59.487Z,135.33
2018-03-06T10:28:28.748Z,107.97
2018-03-06T10:30:58.042Z,117.90
2018-03-06T10:33:27.322Z,106.70
2018-03-06T10:35:56.746Z,116.80
2018-03-06T10:38:26.054Z,114.50
2018-03-06T10:40:55.338Z,109.83
2018-03-06T10:43:24.614Z,113.47
2018-03-06T10:45:53.894Z,128.67
2018-03-06T10:48:23.561Z,114.07
2018-03-06T10:50:52.819Z,118.00
2018-03-06T10:53:22.099Z,124.13
2018-03-06T10:55:52.234Z,117.60
2018-03-06T10:58:22.298Z,124.07
2018-03-06T11:00:51.598Z,124.57
2018-03-06T11:03:22.760Z,104.57
2018-03-06T11:05:52.088Z,113.50
2018-03-06T11:08:22.112Z,114.03
2018-03-06T11:10:51.393Z,104.87
2018-03-06T11:13:20.789Z,118.27
2018-03-06T11:15:50.225Z,105.13
2018-03-06T11:18:19.798Z,114.90
2018-03-06T11:20:49.136Z,110.30
2018-03-06T11:23:19.200Z,116.00
2018-03-06T11:25:48.470Z,113.67
2018-03-06T11:28:17.781Z,101.07
2018-03-06T11:30:47.045Z,125.07
2018-03-06T11:33:16.346Z,108.10
2018-03-06T11:35:45.739Z,111.73
2018-03-06T11:38:15.822Z,112.03
2018-03-06T11:40:45.147Z,113.63
2018-03-06T11:43:14.463Z,118.27
2018-03-06T11:45:43.746Z,124.10
2018-03-06T11:48:13.178Z,117.70
2018-03-06T11:50:42.466Z,119.10
2018-03-06T11:53:11.783Z,101.93
2018-03-06T11:55:41.064Z,113.47
2018-03-06T11:58:11.874Z,110.57
2018-03-06T12:00:41.160Z,113.80
2018-03-06T12:03:10.520Z,107.43
2018-03-06T12:05:39.900Z,97.37
2018-03-06T12:08:09.345Z,119.53
2018-03-06T12:10:39.382Z,113.73
2018-03-06T12:13:08.679Z,102.37
2018-03-06T12:15:37.951Z,113.47
2018-03-06T12:18:07.221Z,110.80
2018-03-06T12:20:36.557Z,138.20
2018-03-06T12:23:05.842Z,103.53
2018-03-06T12:25:35.140Z,104.97
2018-03-06T12:28:04.417Z,100.07
2018-03-06T12:30:33.854Z,114.00
2018-03-06T12:33:04.115Z,117.73
2018-03-06T12:35:33.668Z,90.53
2018-03-06T12:38:02.949Z,104.97
2018-03-06T12:40:32.268Z,109.23
2018-03-06T12:43:01.736Z,111.53
2018-03-06T12:45:31.027Z,99.87
2018-03-06T12:48:00.323Z,111.30
2018-03-06T12:50:29.581Z,106.50
2018-03-06T12:52:58.866Z,99.23
2018-03-06T12:55:28.385Z,101.10
2018-03-06T12:57:57.740Z,102.23
2018-03-06T13:00:27.038Z,98.97
2018-03-06T13:02:56.308Z,105.23
2018-03-06T13:05:26.343Z,111.83
2018-03-06T13:07:56.480Z,114.60
2018-03-06T13:10:26.550Z,94.13
2018-03-06T13:12:55.800Z,96.40
2018-03-06T13:15:25.226Z,104.33
2018-03-06T13:17:54.812Z,87.63
2018-03-06T13:20:24.068Z,106.20
2018-03-06T13:22:53.534Z,88.03
2018-03-06T13:25:23.040Z,88.70
2018-03-06T13:27:52.313Z,88.97
2018-03-06T13:30:22.457Z,89.53
2018-03-06T13:32:52.499Z,101.50
2018-03-06T13:35:21.790Z,87.03
2018-03-06T13:37:51.084Z,97.53
2018-03-06T13:40:20.379Z,82.03
2018-03-06T13:42:49.747Z,116.03
2018-03-06T13:45:19.804Z,103.30
2018-03-06T13:47:49.094Z,89.20
2018-03-06T13:50:18.382Z,102.90
2018-03-06T13:52:48.528Z,83.40
2018-03-06T13:55:17.810Z,94.27
2018-03-06T13:57:47.121Z,91.80
2018-03-06T14:00:16.424Z,84.40
2018-03-06T14:02:45.698Z,84.57
2018-03-06T14:05:14.950Z,76.67
2018-03-06T14:07:44.506Z,85.67
2018-03-06T14:10:13.938Z,89.73
2018-03-06T14:12:44.073Z,86.30
2018-03-06T14:15:14.102Z,84.77
2018-03-06T14:17:43.371Z,79.27
2018-03-06T14:20:12.671Z,75.03
2018-03-06T14:22:41.972Z,83.03
2018-03-06T14:25:11.889Z,83.90
2018-03-06T14:27:41.286Z,90.20
2018-03-06T14:30:10.683Z,73.73
2018-03-06T14:32:39.953Z,77.47
2018-03-06T14:35:09.262Z,72.40
2018-03-06T14:37:38.545Z,80.37
2018-03-06T14:40:07.838Z,85.37
2018-03-06T14:42:37.152Z,80.47
2018-03-06T14:45:06.403Z,69.77
2018-03-06T14:47:36.460Z,73.10
2018-03-06T14:50:05.733Z,77.50
2018-03-06T14:52:35.002Z,82.80
2018-03-06T14:55:04.295Z,84.03
2018-03-06T14:57:33.581Z,75.23
2018-03-06T15:00:02.837Z,91.60
2018-03-06T15:02:32.178Z,85.53
2018-03-06T15:05:01.450Z,90.80
2018-03-06T15:07:30.778Z,94.13
2018-03-06T15:10:00.333Z,107.73
2018-03-06T15:12:29.619Z,89.03
2018-03-06T15:14:58.906Z,93.80
2018-03-06T15:17:28.208Z,97.57
2018-03-06T15:19:57.536Z,85.60
2018-03-06T15:22:26.888Z,83.13
2018-03-06T15:24:56.148Z,81.67
2018-03-06T15:27:25.548Z,97.07
2018-03-06T15:29:55.052Z,102.80
2018-03-06T15:32:24.335Z,91.57
2018-03-06T15:34:54.453Z,93.93
2018-03-06T15:37:24.492Z,87.43
2018-03-06T15:39:53.780Z,97.23
2018-03-06T15:42:23.068Z,92.03
2018-03-06T15:44:52.358Z,95.50
2018-03-06T15:47:21.634Z,89.10
2018-03-06T15:49:50.934Z,99.23
2018-03-06T15:52:20.202Z,87.10
2018-03-06T15:54:49.508Z,84.17
2018-03-06T15:57:18.958Z,78.20
2018-03-06T15:59:49.078Z,87.70
2018-03-06T16:02:18.540Z,91.30
2018-03-06T16:04:47.830Z,94.40
2018-03-06T16:07:17.147Z,78.53
2018-03-06T16:09:46.428Z,73.43
2018-03-06T16:12:15.692Z,70.90
2018-03-06T16:14:45.038Z,81.70
2018-03-06T16:17:14.294Z,72.50
2018-03-06T16:19:44.319Z,75.50
2018-03-06T16:22:13.617Z,72.93
2018-03-06T16:24:42.902Z,70.13
2018-03-06T16:27:12.175Z,65.77
2018-03-06T16:29:41.593Z,82.30
2018-03-06T16:32:10.882Z,76.70
2018-03-06T16:34:40.400Z,75.17
2018-03-06T16:37:10.383Z,70.37
2018-03-06T16:39:39.689Z,63.10
2018-03-06T16:42:08.954Z,73.90
2018-03-06T16:44:39.749Z,72.27
2018-03-06T16:47:08.989Z,74.13
2018-03-06T16:49:39.040Z,70.53
2018-03-06T16:52:08.684Z,69.20
2018-03-06T16:54:38.115Z,62.00
2018-03-06T16:57:09.673Z,66.80
2018-03-06T16:59:39.680Z,62.30
2018-03-06T17:02:08.999Z,73.37
2018-03-06T17:04:38.389Z,64.63
2018-03-06T17:07:08.494Z,74.73
2018-03-06T17:09:37.736Z,63.07
2018-03-06T17:12:07.056Z,71.20
2018-03-06T17:14:36.353Z,70.87
2018-03-06T17:17:05.726Z,80.90
2018-03-06T17:19:35.108Z,73.40
2018-03-06T17:22:04.380Z,70.50
2018-03-06T17:24:34.415Z,62.30
2018-03-06T17:27:03.696Z,76.20
2018-03-06T17:29:32.975Z,69.23
2018-03-06T17:32:02.307Z,62.20
2018-03-06T17:34:32.492Z,70.67
2018-03-06T17:37:02.565Z,63.53
2018-03-06T17:39:31.942Z,68.20
2018-03-06T17:42:01.239Z,60.67
2018-03-06T17:44:30.477Z,67.93
2018-03-06T17:47:01.569Z,70.90
2018-03-06T17:49:31.924Z,69.57
2018-03-06T17:52:01.379Z,69.60
2018-03-06T17:54:30.647Z,60.77
2018-03-06T17:56:59.918Z,62.37
2018-03-06T17:59:29.222Z,72.87
2018-03-06T18:01:58.627Z,60.80
2018-03-06T18:04:27.952Z,72.20
2018-03-06T18:06:57.232Z,75.33
2018-03-06T18:09:27.260Z,72.97
2018-03-06T18:11:56.506Z,74.80
2018-03-06T18:14:25.788Z,71.57
2018-03-06T18:16:55.116Z,70.17
2018-03-06T18:19:24.773Z,72.47
2018-03-06T18:21:54.405Z,70.13
2018-03-06T18:24:23.878Z,70.93
2018-03-06T18:26:53.189Z,78.10
2018-03-06T18:29:22.547Z,70.57
2018-03-06T18:31:51.825Z,62.17
2018-03-06T18:34:21.297Z,68.97
2018-03-06T18:36:51.005Z,72.90
2018-03-06T18:39:20.254Z,69.97
2018-03-06T18:41:49.876Z,72.83
2018-03-06T18:44:19.121Z,60.73
2018-03-06T18:46:48.772Z,66.33
2018-03-06T18:49:18.072Z,79.77
2018-03-06T18:51:47.350Z,74.10
2018-03-06T18:54:16.628Z,69.23
2018-03-06T18:56:46.061Z,81.20
2018-03-06T18:59:15.330Z,67.40
2018-03-06T19:02:18.120Z,74.00
2018-03-06T19:05:05.086Z,65.07
2018-03-06T19:07:34.350Z,65.57
2018-03-06T19:10:03.801Z,77.70
2018-03-06T19:12:33.248Z,66.00
2018-03-06T19:15:02.525Z,72.37
2018-03-06T19:17:31.897Z,81.87
2018-03-06T19:20:01.203Z,73.97
2018-03-06T19:22:30.515Z,73.87
2018-03-06T19:27:36.802Z,66.53
2018-03-06T19:30:06.114Z,81.10
2018-03-06T19:32:35.559Z,89.37
2018-03-06T19:35:05.186Z,85.17
2018-03-06T19:37:35.322Z,81.83
2018-03-06T19:40:04.917Z,78.27
2018-03-06T19:42:34.285Z,76.10
2018-03-06T19:45:03.691Z,73.17
2018-03-06T19:47:32.974Z,88.07
2018-03-06T19:50:02.283Z,74.90
2018-03-06T19:52:31.959Z,103.10
2018-03-06T19:55:01.191Z,72.60
2018-03-06T19:57:30.478Z,77.30
2018-03-06T19:59:59.766Z,79.87
2018-03-06T20:02:29.035Z,80.10
2018-03-06T20:04:58.351Z,90.37
2018-03-06T20:07:27.904Z,78.40
2018-03-06T20:09:57.406Z,72.30
2018-03-06T20:12:26.691Z,72.37
2018-03-06T20:15:01.597Z,77.47
2018-03-06T20:17:30.952Z,65.07
2018-03-06T20:20:00.366Z,77.50
2018-03-06T20:22:29.676Z,72.13
2018-03-06T20:25:04.516Z,95.80
2018-03-06T20:27:33.953Z,93.67
2018-03-06T20:30:03.999Z,74.30
2018-03-06T20:32:38.848Z,75.27
2018-03-06T20:35:08.153Z,76.70
2018-03-06T20:37:37.455Z,82.17
2018-03-06T20:40:12.308Z,66.73
2018-03-06T20:42:42.393Z,69.90
2018-03-06T20:45:12.051Z,77.47
2018-03-06T20:47:41.783Z,79.37
2018-03-06T20:50:11.058Z,76.63
2018-03-06T20:52:45.808Z,81.53
2018-03-06T20:55:15.856Z,69.50
2018-03-06T20:57:45.253Z,72.67
2018-03-06T21:00:14.539Z,80.70
2018-03-06T21:02:44.822Z,74.50
2018-03-06T21:05:14.273Z,79.17
2018-03-06T21:07:43.609Z,72.47
2018-03-06T21:10:12.885Z,79.23
2018-03-06T21:12:42.145Z,76.70
2018-03-06T21:15:11.446Z,77.87
2018-03-06T21:17:41.582Z,72.37
2018-03-06T21:20:10.848Z,77.70
2018-03-06T21:22:40.219Z,88.47
2018-03-06T21:25:09.550Z,80.60
2018-03-06T21:27:38.865Z,70.67
2018-03-06T21:30:08.145Z,88.47
2018-03-06T21:32:37.442Z,93.37
2018-03-06T21:35:06.725Z,76.50
2018-03-06T21:37:36.171Z,79.60
2018-03-06T21:40:05.435Z,83.63
2018-03-06T21:42:34.718Z,79.80
2018-03-06T21:45:04.185Z,71.53
2018-03-06T21:47:33.527Z,66.33
2018-03-06T21:50:03.043Z,68.80
2018-03-06T21:52:32.563Z,65.77
2018-03-06T21:55:01.870Z,77.53
2018-03-06T21:57:31.211Z,57.50
2018-03-06T22:00:01.229Z,70.13
2018-03-06T22:02:30.522Z,79.93
2018-03-06T22:04:59.825Z,56.87
2018-03-06T22:07:29.210Z,62.13
2018-03-06T22:09:58.469Z,61.07
2018-03-06T22:12:27.836Z,65.87
2018-03-06T22:14:57.485Z,68.07
2018-03-06T22:17:26.874Z,63.43
2018-03-06T22:19:58.599Z,63.50
2018-03-06T22:22:28.708Z,51.23
2018-03-06T22:24:58.101Z,58.90
2018-03-06T22:27:27.405Z,45.87
2018-03-06T22:29:56.755Z,51.37
2018-03-06T22:32:26.165Z,50.17
2018-03-06T22:34:55.448Z,44.70
2018-03-06T22:37:24.767Z,35.30
2018-03-06T22:39:54.192Z,43.20
2018-03-06T22:42:23.661Z,42.00
2018-03-06T22:44:53.126Z,37.73
2018-03-06T22:47:22.413Z,36.70
2018-03-06T22:49:52.533Z,32.93
2018-03-06T22:52:21.803Z,25.53
2018-03-06T22:54:51.105Z,23.17
2018-03-06T22:57:20.362Z,27.00
2018-03-06T22:59:49.612Z,28.67
2018-03-06T23:02:18.948Z,21.70
2018-03-06T23:04:48.243Z,26.30
2018-03-06T23:07:17.495Z,25.93
2018-03-06T23:09:46.794Z,21.20
2018-03-06T23:12:16.647Z,20.80
2018-03-06T23:14:45.908Z,24.40
2018-03-06T23:17:15.927Z,28.67
2018-03-06T23:19:45.322Z,23.77
2018-03-06T23:22:15.350Z,27.63
2018-03-06T23:24:44.739Z,29.27
2018-03-06T23:27:14.777Z,21.33
2018-03-06T23:29:44.966Z,21.63
2018-03-06T23:32:14.237Z,29.00
2018-03-06T23:34:43.492Z,21.13
2018-03-06T23:37:12.765Z,22.00
2018-03-06T23:39:42.034Z,22.07
2018-03-06T23:42:12.073Z,19.97
2018-03-06T23:44:41.486Z,26.67
2018-03-06T23:47:10.878Z,16.00
2018-03-06T23:49:40.166Z,27.83
2018-03-06T23:52:09.428Z,26.13
2018-03-06T23:54:38.758Z,29.97
2018-03-06T23:57:08.046Z,23.33
2018-03-06T23:59:37.342Z,27.13
